Terminal Aerodrome Forecast
Issued by NWS

Current Version | Previous Version | Text Only | Print | Product List | Glossary On
Versions: 1 2 3 4 5 6 7 8 9 10 11 12 13 14 15
673
FTUS44 KTSA 300528
TAFRVS
TAF
KRVS 300528Z 3006/0106 19005KT P6SM BKN025
     FM300800 28007KT P6SM OVC012
      TEMPO 3010/3013 3SM BR OVC007
     FM301500 29009KT P6SM BKN015
     FM301800 29007KT P6SM SCT015 BKN250
     FM010000 31007KT P6SM SKC=

USA.gov is the U.S. government's official web portal to all federal, state and local government web resources and services.